Connexion S'enregistrer

Connexion à votre compte

Identifiant
Mot de passe
Maintenir la connexion active sur ce site

Créer un compte

Pour valider ce formulaire, vous devez remplir tous les champs.
Nom
Identifiant
Mot de passe
Répétez le mot de passe
Adresse e-mail
Répétez l'adresse e-mail

Nous contacter

 Téléphone : +33 (0)4 79 54 41 81

Coordonnées détaillées et accès : cliquez ici

 
LFLB °C
    Ferienhaus Ostsee
[source: ADDS]
METAR / TAF
LFLB 231530Z AUTO 35004KT CAVOK 05/M01 Q1030 NOSIG =
TAF LFLB 231400Z 2315/2415 02005KT CAVOK PROB30 TEMPO 2400/2408 3000 BR

SR / SS: 07:07 / 16:29 UTC (Lever/Coucher du soleil le 2022-01-23)
JSN Boot template designed by JoomlaShine.com